Time;durP1;ratioP1;P1;durP2;ratioP2;P2;SDS_P1;SDS_P2;PMS_P1;PMS_P2;Temp;Humidity;BMP_temperature;BMP_pressure;BME280_temperature;BME280_humidity;BME280_pressure;Samples;Min_cycle;Max_cycle;Signal;HPM_P1;HPM_P2
2023/06/15 00:03:31;;;;;;;2.20;1.40;;;33.80;42.40;;;;;;10452111;28;20091;-33
2023/06/15 00:08:34;;;;;;;1.30;1.20;;;33.80;42.50;;;;;;10453951;28;20080;-30
2023/06/15 00:13:37;;;;;;;1.40;1.13;;;33.70;42.20;;;;;;10455680;28;20444;-30
2023/06/15 00:18:40;;;;;;;1.00;0.80;;;33.60;42.30;;;;;;10450032;28;20136;-31
2023/06/15 00:23:42;;;;;;;0.70;0.70;;;33.50;42.20;;;;;;10450306;28;20124;-30
2023/06/15 00:28:46;;;;;;;1.67;1.10;;;33.50;42.00;;;;;;10454631;28;20049;-30
2023/06/15 00:33:47;;;;;;;1.23;1.10;;;33.40;42.00;;;;;;10443939;28;20045;-32
2023/06/15 00:38:49;;;;;;;1.67;0.90;;;33.30;42.30;;;;;;10440831;28;20088;-34
2023/06/15 00:43:53;;;;;;;1.02;0.98;;;33.30;42.40;;;;;;10449840;28;20456;-32
2023/06/15 00:48:55;;;;;;;2.03;0.90;;;33.20;42.30;;;;;;10452955;28;20423;-30
2023/06/15 00:53:56;;;;;;;1.45;1.05;;;33.10;42.50;;;;;;10447934;28;20057;-32
2023/06/15 00:59:00;;;;;;;1.83;1.10;;;33.10;42.40;;;;;;10449794;28;20041;-33
2023/06/15 01:04:01;;;;;;;2.22;0.95;;;33.00;42.40;;;;;;10451654;28;20089;-32
2023/06/15 01:09:04;;;;;;;3.20;1.20;;;33.00;42.60;;;;;;10430614;28;20900;-35
2023/06/15 01:14:08;;;;;;;1.42;1.33;;;33.00;42.60;;;;;;10439294;28;20063;-32
2023/06/15 01:19:17;;;;;;;1.85;1.42;;;32.90;42.50;;;;;;10443299;28;20130;-34
2023/06/15 01:24:25;;;;;;;2.67;1.60;;;32.80;42.50;;;;;;10442235;28;20056;-31
2023/06/15 01:29:29;;;;;;;2.78;1.77;;;32.70;42.60;;;;;;10446636;28;20139;-34
2023/06/15 01:34:31;;;;;;;2.67;1.83;;;32.70;42.60;;;;;;10445836;28;20055;-32
2023/06/15 01:39:33;;;;;;;2.30;2.10;;;32.60;42.60;;;;;;10436150;28;20666;-30
2023/06/15 01:44:37;;;;;;;3.20;1.98;;;32.60;42.60;;;;;;10446714;28;20087;-32
2023/06/15 01:49:40;;;;;;;4.07;2.35;;;32.50;42.60;;;;;;10448559;28;20044;-31
2023/06/15 01:54:42;;;;;;;3.88;2.60;;;32.40;42.60;;;;;;10447495;28;20052;-34
2023/06/15 01:59:45;;;;;;;3.60;2.60;;;32.40;42.70;;;;;;10443366;28;20080;-31
2023/06/15 02:04:48;;;;;;;3.20;2.08;;;32.30;42.70;;;;;;10448813;28;20076;-32
2023/06/15 02:09:50;;;;;;;2.72;2.10;;;32.30;42.80;;;;;;10451719;28;20531;-30
2023/06/15 02:14:54;;;;;;;2.45;1.75;;;32.20;43.40;;;;;;10433898;28;20080;-29
2023/06/15 02:19:55;;;;;;;2.00;1.70;;;32.20;42.70;;;;;;10440414;28;20548;-34
2023/06/15 02:24:57;;;;;;;1.98;1.77;;;32.10;42.80;;;;;;10442921;28;20128;-29
2023/06/15 02:30:01;;;;;;;2.60;1.92;;;32.10;42.80;;;;;;10452527;28;20049;-35
2023/06/15 02:35:04;;;;;;;2.33;1.90;;;32.10;42.80;;;;;;10443546;28;20079;-34
2023/06/15 02:40:08;;;;;;;2.72;1.70;;;32.00;42.90;;;;;;10443698;28;20055;-29
2023/06/15 02:45:12;;;;;;;2.67;1.48;;;31.90;42.90;;;;;;10453045;28;20067;-31
2023/06/15 02:50:14;;;;;;;2.17;1.52;;;31.90;43.00;;;;;;10448709;28;20465;-30
2023/06/15 02:55:16;;;;;;;2.10;1.55;;;31.80;43.00;;;;;;10447672;28;20136;-32
2023/06/15 03:15:27;;;;;;;2.13;1.42;;;31.70;42.70;;;;;;10469774;27;2190071;-32
2023/06/15 03:20:32;;;;;;;1.20;1.10;;;31.60;43.20;;;;;;10562603;28;20113;-31
2023/06/15 03:25:35;;;;;;;1.63;1.27;;;31.60;42.90;;;;;;10549330;28;20051;-30
2023/06/15 03:30:40;;;;;;;1.80;1.48;;;31.60;42.90;;;;;;10564131;28;20040;-32
2023/06/15 03:35:42;;;;;;;3.45;1.70;;;31.60;42.90;;;;;;10564078;28;20104;-30
2023/06/15 03:40:44;;;;;;;5.50;1.50;;;31.50;42.80;;;;;;10569552;28;20061;-30
2023/06/15 03:45:47;;;;;;;2.47;1.30;;;31.50;42.80;;;;;;10548598;28;20486;-32
2023/06/15 03:50:49;;;;;;;1.77;1.33;;;31.40;42.80;;;;;;10571543;28;20564;-31
2023/06/15 03:55:52;;;;;;;1.77;1.38;;;31.40;42.80;;;;;;10559458;28;20040;-30
2023/06/15 04:00:57;;;;;;;1.88;1.27;;;31.40;42.90;;;;;;10556803;28;20139;-28
2023/06/15 04:06:01;;;;;;;1.73;1.33;;;31.30;42.90;;;;;;10565021;28;20044;-30
2023/06/15 04:11:02;;;;;;;1.23;1.10;;;31.30;42.90;;;;;;10567558;28;20056;-30
2023/06/15 04:16:06;;;;;;;2.85;1.90;;;31.20;43.00;;;;;;10566216;28;20356;-33
2023/06/15 04:21:08;;;;;;;2.40;1.50;;;31.20;43.00;;;;;;10559205;28;20138;-31
2023/06/15 04:26:10;;;;;;;2.15;1.40;;;31.20;43.00;;;;;;10527661;28;20047;-32
2023/06/15 04:31:14;;;;;;;2.65;1.40;;;31.20;43.10;;;;;;10528561;28;20409;-35
2023/06/15 04:36:16;;;;;;;4.70;1.88;;;31.20;43.20;;;;;;10515639;28;20045;-32
2023/06/15 04:41:22;;;;;;;7.55;1.90;;;31.10;43.20;;;;;;10526054;28;20086;-32
2023/06/15 04:46:25;;;;;;;2.83;1.45;;;31.10;43.20;;;;;;10527535;28;20044;-31
2023/06/15 04:51:27;;;;;;;3.78;1.55;;;31.10;43.20;;;;;;10519576;28;20040;-35
2023/06/15 04:56:28;;;;;;;2.90;2.20;;;31.10;43.20;;;;;;10523041;28;20138;-30
2023/06/15 05:01:32;;;;;;;3.05;1.70;;;31.10;43.30;;;;;;10532276;28;20457;-34
2023/06/15 05:06:34;;;;;;;2.00;1.48;;;31.10;43.20;;;;;;10526534;28;20051;-31
2023/06/15 05:11:36;;;;;;;5.00;2.08;;;31.00;43.20;;;;;;10533812;28;20146;-33
2023/06/15 05:16:39;;;;;;;2.20;1.88;;;31.00;43.20;;;;;;10517300;28;20084;-31
2023/06/15 05:21:41;;;;;;;5.00;1.77;;;31.00;43.20;;;;;;10520184;28;20048;-32
2023/06/15 05:26:43;;;;;;;1.75;1.55;;;31.00;43.30;;;;;;10528927;28;20047;-34
2023/06/15 05:31:46;;;;;;;3.97;1.88;;;31.00;43.20;;;;;;10520834;28;20097;-32
2023/06/15 05:36:48;;;;;;;2.75;1.70;;;31.00;43.30;;;;;;10519882;28;20039;-31
2023/06/15 05:41:50;;;;;;;3.10;2.03;;;31.00;43.20;;;;;;10524955;28;20052;-30
2023/06/15 05:46:53;;;;;;;2.95;1.90;;;31.00;43.30;;;;;;10524329;28;20091;-32
2023/06/15 05:51:55;;;;;;;3.85;2.30;;;31.00;43.30;;;;;;10533796;28;20083;-31
2023/06/15 05:56:57;;;;;;;3.20;1.63;;;31.00;43.30;;;;;;10537414;28;20058;-36
2023/06/15 06:02:00;;;;;;;2.17;1.70;;;30.90;43.20;;;;;;10520138;28;20048;-31
2023/06/15 06:07:05;;;;;;;2.42;1.63;;;30.90;43.20;;;;;;10507671;28;20043;-34
2023/06/15 06:12:07;;;;;;;2.65;1.75;;;31.00;43.30;;;;;;10515613;28;20066;-31
2023/06/15 06:17:10;;;;;;;6.22;1.63;;;31.00;43.30;;;;;;10514999;28;20079;-31
2023/06/15 06:22:12;;;;;;;6.47;2.00;;;31.00;43.30;;;;;;10521737;28;20448;-35
2023/06/15 06:27:14;;;;;;;2.30;1.70;;;31.00;43.30;;;;;;10522255;28;20044;-31
2023/06/15 06:32:18;;;;;;;5.57;1.90;;;31.00;43.30;;;;;;10524946;28;20437;-31
2023/06/15 06:37:20;;;;;;;5.35;2.40;;;31.00;43.30;;;;;;10527156;28;20109;-34
2023/06/15 06:42:22;;;;;;;2.17;1.63;;;31.00;43.20;;;;;;10523867;28;20076;-32
2023/06/15 06:47:25;;;;;;;2.30;1.63;;;31.00;43.30;;;;;;10535962;28;20134;-30
2023/06/15 06:52:27;;;;;;;5.53;2.13;;;31.00;43.90;;;;;;10511929;28;20083;-32
2023/06/15 06:57:29;;;;;;;5.78;2.15;;;31.00;43.30;;;;;;10527041;28;20131;-31
2023/06/15 07:02:33;;;;;;;5.22;2.20;;;31.00;43.30;;;;;;10531447;28;20047;-32
2023/06/15 07:07:34;;;;;;;5.35;1.92;;;31.00;43.30;;;;;;10521843;28;20102;-34
2023/06/15 07:12:36;;;;;;;4.13;1.70;;;31.00;43.30;;;;;;10518572;28;20056;-32
2023/06/15 07:17:40;;;;;;;3.88;2.10;;;31.10;44.00;;;;;;10515905;28;20047;-32
2023/06/15 07:22:42;;;;;;;2.83;1.90;;;31.10;43.30;;;;;;10520008;28;20048;-30
2023/06/15 07:27:44;;;;;;;2.50;1.77;;;31.10;43.30;;;;;;10526522;28;20143;-31
2023/06/15 07:32:47;;;;;;;3.28;1.92;;;31.10;43.30;;;;;;10517355;28;20127;-30
2023/06/15 07:37:49;;;;;;;2.65;1.70;;;31.10;43.30;;;;;;10536253;28;20048;-31
2023/06/15 07:42:51;;;;;;;4.75;2.70;;;31.10;43.30;;;;;;10529168;28;20145;-30
2023/06/15 07:47:54;;;;;;;5.20;2.58;;;30.80;43.40;;;;;;10523346;28;20040;-33
2023/06/15 07:52:56;;;;;;;6.20;3.08;;;30.80;43.70;;;;;;10515751;28;20444;-29
2023/06/15 07:57:58;;;;;;;3.65;2.67;;;30.60;43.70;;;;;;10525512;28;20051;-33
2023/06/15 08:03:01;;;;;;;4.68;2.17;;;30.90;43.80;;;;;;10518898;28;20075;-30
2023/06/15 08:08:04;;;;;;;4.45;2.50;;;30.90;43.60;;;;;;10535140;28;20075;-30
2023/06/15 08:13:06;;;;;;;3.88;2.20;;;31.10;43.50;;;;;;10521888;28;20764;-31
2023/06/15 08:18:10;;;;;;;2.58;2.38;;;31.10;43.60;;;;;;10527049;28;20048;-29
2023/06/15 08:23:12;;;;;;;7.28;3.08;;;31.10;43.50;;;;;;10536242;28;20148;-32
2023/06/15 08:28:14;;;;;;;3.50;2.35;;;31.10;43.40;;;;;;10532822;28;20089;-31
2023/06/15 08:33:19;;;;;;;3.45;2.35;;;31.20;43.40;;;;;;10519103;28;20191;-32
2023/06/15 08:38:21;;;;;;;2.30;1.92;;;31.30;43.40;;;;;;10527483;28;20080;-35
2023/06/15 08:43:25;;;;;;;2.55;2.05;;;31.40;43.20;;;;;;10532479;28;20101;-37
2023/06/15 08:48:31;;;;;;;2.45;2.05;;;31.50;43.20;;;;;;10522341;28;20130;-37
2023/06/15 08:53:34;;;;;;;3.22;2.30;;;31.30;43.40;;;;;;10539816;28;20129;-32
2023/06/15 08:58:36;;;;;;;2.47;2.00;;;31.40;43.30;;;;;;10532715;28;20056;-34
2023/06/15 09:03:39;;;;;;;4.60;2.53;;;30.80;44.00;;;;;;10530074;28;20492;-30
2023/06/15 09:08:41;;;;;;;4.82;2.63;;;31.10;40.70;;;;;;10525025;28;20184;-34
2023/06/15 09:13:44;;;;;;;2.95;2.20;;;30.60;41.20;;;;;;10519309;28;20146;-31
2023/06/15 09:18:51;;;;;;;3.00;2.33;;;31.00;43.80;;;;;;10535367;28;20481;-38
2023/06/15 09:24:04;;;;;;;2.58;1.73;;;30.80;44.50;;;;;;10538200;28;20059;-32
2023/06/15 09:29:09;;;;;;;6.65;2.50;;;31.30;43.00;;;;;;10537184;28;20518;-30
2023/06/15 09:34:14;;;;;;;3.60;2.67;;;30.80;41.80;;;;;;10529409;28;20052;-31
2023/06/15 09:39:22;;;;;;;8.57;2.40;;;30.90;44.80;;;;;;10531865;28;20131;-32
2023/06/15 09:44:25;;;;;;;6.75;2.63;;;30.10;41.30;;;;;;10536792;28;20439;-31
2023/06/15 09:49:31;;;;;;;11.27;3.85;;;28.90;41.50;;;;;;10537838;28;20039;-30
2023/06/15 09:54:33;;;;;;;6.15;3.08;;;29.30;45.30;;;;;;10545436;28;20618;-34
2023/06/15 09:59:35;;;;;;;3.00;2.58;;;28.30;46.60;;;;;;10508907;28;20093;-36
2023/06/15 10:04:40;;;;;;;7.72;4.57;;;28.00;51.50;;;;;;10536516;28;20126;-32
2023/06/15 10:09:46;;;;;;;5.00;3.75;;;27.60;48.10;;;;;;10543939;28;20138;-31
2023/06/15 10:14:53;;;;;;;16.67;5.05;;;28.30;48.30;;;;;;10526799;28;20079;-32
2023/06/15 10:19:57;;;;;;;11.00;3.13;;;26.50;52.50;;;;;;10508164;28;20098;-32
2023/06/15 10:24:59;;;;;;;4.90;2.42;;;27.60;51.20;;;;;;10522393;28;20451;-36
2023/06/15 10:30:08;;;;;;;8.18;4.22;;;28.30;51.60;;;;;;10527380;28;20093;-31
2023/06/15 10:35:19;;;;;;;9.68;3.95;;;27.20;52.10;;;;;;10517672;28;20064;-30
2023/06/15 10:40:25;;;;;;;8.23;2.80;;;28.30;51.00;;;;;;10528948;28;20457;-34
2023/06/15 10:45:28;;;;;;;9.82;4.03;;;28.40;50.70;;;;;;10526442;28;20167;-30
2023/06/15 10:50:39;;;;;;;7.00;3.50;;;27.30;50.30;;;;;;10537053;28;20059;-31
2023/06/15 10:55:46;;;;;;;2.88;2.15;;;27.90;52.20;;;;;;10519533;28;20044;-31
2023/06/15 11:01:04;;;;;;;5.55;2.78;;;27.30;52.90;;;;;;10522785;28;20058;-34
2023/06/15 11:06:14;;;;;;;5.85;2.55;;;27.50;50.50;;;;;;10521077;28;20128;-31
2023/06/15 11:11:18;;;;;;;7.68;2.95;;;28.80;49.40;;;;;;10526974;28;20063;-35
2023/06/15 11:16:26;;;;;;;3.28;2.53;;;29.10;47.10;;;;;;10527282;28;20047;-28
2023/06/15 11:21:30;;;;;;;3.90;2.45;;;29.30;48.70;;;;;;10524875;28;20531;-29
2023/06/15 11:26:32;;;;;;;4.78;2.90;;;29.90;48.70;;;;;;10529032;28;20051;-32
2023/06/15 11:31:35;;;;;;;5.68;2.92;;;30.40;47.50;;;;;;10530039;28;20085;-34
2023/06/15 11:36:38;;;;;;;6.72;3.35;;;29.90;46.00;;;;;;10526416;28;20051;-30
2023/06/15 11:41:43;;;;;;;4.30;3.08;;;29.90;47.90;;;;;;10540254;28;20493;-32
2023/06/15 11:46:53;;;;;;;6.20;3.25;;;28.80;50.00;;;;;;10523192;28;20055;-31
2023/06/15 11:51:57;;;;;;;6.05;2.45;;;29.50;46.20;;;;;;10528748;28;20579;-32
2023/06/15 11:57:00;;;;;;;4.65;2.47;;;29.80;48.50;;;;;;10525842;28;20083;-30
2023/06/15 12:02:04;;;;;;;5.75;2.72;;;29.30;49.10;;;;;;10528172;28;20580;-30
2023/06/15 12:07:08;;;;;;;9.45;2.80;;;29.30;49.10;;;;;;10516430;28;20098;-35
2023/06/15 12:12:28;;;;;;;11.80;2.85;;;28.90;49.90;;;;;;10531719;28;20048;-31
2023/06/15 12:17:31;;;;;;;7.70;3.53;;;29.00;50.30;;;;;;10515215;28;20134;-31
2023/06/15 12:22:35;;;;;;;10.27;3.00;;;29.00;49.40;;;;;;10530263;28;20066;-32
2023/06/15 12:27:42;;;;;;;3.25;2.10;;;28.30;49.20;;;;;;10522057;28;20198;-30
2023/06/15 12:32:44;;;;;;;4.35;2.28;;;29.50;50.80;;;;;;10543257;28;20040;-29
2023/06/15 12:37:49;;;;;;;5.07;2.88;;;29.90;51.80;;;;;;10506476;28;20040;-36
2023/06/15 12:43:01;;;;;;;5.22;2.30;;;29.00;46.60;;;;;;10519944;28;20055;-36
2023/06/15 12:48:04;;;;;;;6.82;2.92;;;30.20;52.00;;;;;;10524663;28;20508;-36
2023/06/15 12:53:08;;;;;;;6.97;3.40;;;31.10;47.70;;;;;;10514540;28;20047;-40
2023/06/15 12:58:10;;;;;;;5.63;2.53;;;30.70;48.80;;;;;;10516787;28;20124;-35
2023/06/15 13:03:12;;;;;;;4.50;2.60;;;30.60;45.00;;;;;;10519139;28;20121;-40
2023/06/15 13:08:16;;;;;;;4.65;2.50;;;30.40;45.70;;;;;;10508943;28;20197;-40
2023/06/15 13:13:18;;;;;;;5.95;2.25;;;30.30;43.20;;;;;;10521516;28;20084;-37
2023/06/15 13:18:20;;;;;;;6.68;2.65;;;30.80;47.40;;;;;;10519377;28;20064;-35
2023/06/15 13:23:24;;;;;;;4.15;2.15;;;30.50;44.60;;;;;;10528490;28;20151;-35
2023/06/15 13:28:26;;;;;;;4.80;2.35;;;31.40;49.50;;;;;;10518755;28;20059;-37
2023/06/15 13:33:27;;;;;;;2.22;1.33;;;31.60;44.90;;;;;;10520610;28;20071;-36
2023/06/15 13:38:31;;;;;;;2.95;1.63;;;31.90;48.10;;;;;;10526194;28;20142;-37
2023/06/15 13:43:32;;;;;;;8.63;1.80;;;32.20;44.70;;;;;;10520452;28;20090;-39
2023/06/15 13:48:34;;;;;;;11.88;1.90;;;32.10;48.40;;;;;;10513406;28;20090;-45
2023/06/15 13:53:38;;;;;;;3.50;1.52;;;32.10;45.30;;;;;;10525837;28;20068;-35
2023/06/15 13:58:40;;;;;;;2.65;2.08;;;32.90;44.30;;;;;;10527629;28;20125;-44
2023/06/15 14:03:44;;;;;;;7.70;1.58;;;32.70;48.10;;;;;;10520267;28;20044;-45
2023/06/15 14:08:48;;;;;;;2.45;1.50;;;32.40;45.20;;;;;;10506523;28;20052;-44
2023/06/15 14:13:52;;;;;;;4.60;1.70;;;33.70;43.50;;;;;;10519822;28;20056;-52
2023/06/15 14:18:55;;;;;;;2.95;1.88;;;33.10;48.30;;;;;;10518472;28;20044;-46
2023/06/15 14:23:58;;;;;;;4.63;1.92;;;33.00;47.70;;;;;;10515737;28;20063;-48
2023/06/15 14:29:00;;;;;;;5.90;1.83;;;33.50;47.20;;;;;;10516839;28;20072;-51
2023/06/15 14:34:02;;;;;;;3.75;2.10;;;33.80;46.80;;;;;;10526318;28;20403;-56
2023/06/15 14:39:06;;;;;;;4.25;1.70;;;33.80;42.10;;;;;;10525957;28;20071;-47
2023/06/15 14:44:10;;;;;;;3.70;1.80;;;34.10;41.00;;;;;;10517402;28;20036;-48
2023/06/15 14:49:12;;;;;;;1.83;1.65;;;34.60;45.70;;;;;;10504061;28;20540;-49
2023/06/15 14:54:15;;;;;;;4.25;1.70;;;35.00;43.70;;;;;;10518324;28;20044;-49
2023/06/15 14:59:17;;;;;;;2.53;1.50;;;34.90;40.80;;;;;;10515431;28;20505;-48
2023/06/15 15:04:20;;;;;;;3.08;1.73;;;34.70;44.20;;;;;;10504487;28;20134;-51
2023/06/15 15:09:23;;;;;;;5.38;1.30;;;34.60;40.50;;;;;;10518446;28;20075;-47
2023/06/15 15:14:25;;;;;;;6.53;2.45;;;34.70;45.50;;;;;;10521169;28;20058;-46
2023/06/15 15:19:27;;;;;;;4.53;1.75;;;34.50;46.00;;;;;;10512492;28;20040;-50
2023/06/15 15:24:30;;;;;;;1.55;1.40;;;34.30;40.50;;;;;;10516684;28;20045;-53
2023/06/15 15:29:32;;;;;;;2.60;1.33;;;35.00;48.30;;;;;;10511137;28;20456;-47
2023/06/15 15:34:34;;;;;;;1.63;1.50;;;34.80;44.40;;;;;;10518772;28;20045;-52
2023/06/15 15:39:37;;;;;;;3.15;1.50;;;34.50;43.90;;;;;;10524188;28;20454;-47
2023/06/15 15:44:39;;;;;;;5.78;1.63;;;35.20;47.60;;;;;;10522683;28;20074;-47
2023/06/15 15:49:41;;;;;;;5.57;1.67;;;34.70;47.50;;;;;;10511631;28;20063;-45
2023/06/15 15:54:46;;;;;;;6.97;2.10;;;35.40;43.70;;;;;;10510855;28;20189;-48
2023/06/15 15:59:48;;;;;;;6.18;1.48;;;35.40;40.40;;;;;;10518645;28;20042;-47
2023/06/15 16:04:50;;;;;;;4.20;1.60;;;35.70;46.00;;;;;;10516413;28;20130;-51
2023/06/15 16:09:53;;;;;;;4.22;1.65;;;35.40;45.10;;;;;;10514782;28;20040;-44
2023/06/15 16:14:55;;;;;;;2.38;1.80;;;34.90;42.30;;;;;;10524094;28;20496;-50
2023/06/15 16:19:57;;;;;;;8.15;2.00;;;35.90;46.50;;;;;;10527212;28;20074;-48
2023/06/15 16:25:00;;;;;;;3.03;2.05;;;35.60;39.20;;;;;;10516582;28;20040;-48
2023/06/15 16:30:03;;;;;;;3.08;1.90;;;35.50;48.30;;;;;;10512066;28;20124;-51
2023/06/15 16:35:06;;;;;;;4.82;1.80;;;35.60;49.60;;;;;;10514415;28;20088;-50
2023/06/15 16:40:10;;;;;;;2.00;1.58;;;36.00;48.60;;;;;;10531571;28;20707;-47
2023/06/15 16:45:12;;;;;;;2.95;2.47;;;36.40;48.50;;;;;;10521171;28;20076;-54
2023/06/15 16:50:14;;;;;;;4.40;3.33;;;36.60;47.90;;;;;;10524643;28;20131;-47
2023/06/15 16:55:18;;;;;;;4.03;3.17;;;36.30;47.80;;;;;;10529048;28;20055;-49
2023/06/15 17:00:20;;;;;;;4.80;2.75;;;36.10;48.80;;;;;;10516490;28;20450;-48
2023/06/15 17:05:22;;;;;;;6.13;2.40;;;36.60;48.60;;;;;;10529604;28;20407;-48
2023/06/15 17:10:25;;;;;;;6.82;2.00;;;35.90;48.80;;;;;;10517786;28;20042;-48
2023/06/15 17:15:27;;;;;;;5.68;2.20;;;35.50;37.70;;;;;;10515805;28;20143;-46
2023/06/15 17:20:29;;;;;;;3.97;2.13;;;35.60;36.90;;;;;;10515642;28;20060;-51
2023/06/15 17:25:32;;;;;;;6.40;2.47;;;35.50;48.30;;;;;;10526375;28;20570;-49
2023/06/15 17:30:34;;;;;;;4.68;2.22;;;35.80;45.30;;;;;;10522121;28;20439;-52
2023/06/15 17:35:36;;;;;;;6.40;2.15;;;35.40;47.60;;;;;;10516075;28;20044;-42
2023/06/15 17:40:39;;;;;;;6.32;2.08;;;35.80;42.00;;;;;;10531193;28;20464;-54
2023/06/15 17:45:41;;;;;;;5.28;2.40;;;36.00;42.80;;;;;;10515714;28;20051;-43
2023/06/15 17:50:43;;;;;;;5.22;2.25;;;36.60;46.40;;;;;;10509947;28;20059;-52
2023/06/15 17:55:46;;;;;;;2.47;1.92;;;36.00;46.10;;;;;;10517774;28;20083;-47
2023/06/15 18:00:48;;;;;;;6.28;2.33;;;36.30;45.70;;;;;;10531015;28;20131;-51
2023/06/15 18:05:50;;;;;;;4.32;2.47;;;36.80;46.40;;;;;;10529763;28;20110;-53
2023/06/15 18:10:53;;;;;;;4.38;2.60;;;36.90;46.10;;;;;;10531361;28;20139;-50
2023/06/15 18:15:55;;;;;;;5.75;2.55;;;37.20;45.90;;;;;;10527132;28;20100;-49
2023/06/15 18:20:57;;;;;;;2.95;2.40;;;37.20;46.10;;;;;;10518306;28;20482;-51
2023/06/15 18:26:00;;;;;;;7.25;2.25;;;37.30;45.90;;;;;;10535347;28;20048;-47
2023/06/15 18:31:02;;;;;;;2.80;2.53;;;37.30;46.00;;;;;;10528094;28;20476;-50
2023/06/15 18:36:04;;;;;;;5.28;3.35;;;37.20;46.30;;;;;;10526050;28;20135;-53
2023/06/15 18:41:08;;;;;;;4.35;2.40;;;37.30;46.20;;;;;;10512819;28;20157;-47
2023/06/15 18:46:10;;;;;;;3.22;2.25;;;37.10;46.40;;;;;;10529755;28;20047;-50
2023/06/15 18:51:12;;;;;;;5.50;2.22;;;37.20;46.30;;;;;;10518495;28;20048;-44
2023/06/15 18:56:15;;;;;;;3.58;2.40;;;36.90;46.40;;;;;;10519994;28;20080;-50
2023/06/15 19:01:17;;;;;;;3.17;2.10;;;36.70;46.90;;;;;;10517939;28;20117;-45
2023/06/15 19:06:19;;;;;;;2.42;1.95;;;36.90;46.30;;;;;;10508294;28;20072;-50
2023/06/15 19:11:22;;;;;;;3.13;2.22;;;36.70;46.40;;;;;;10510332;28;20475;-45
2023/06/15 19:16:25;;;;;;;4.70;2.20;;;36.70;45.60;;;;;;10514193;28;20127;-45
2023/06/15 19:21:27;;;;;;;3.38;1.92;;;36.20;45.60;;;;;;10534524;28;20135;-48
2023/06/15 19:26:31;;;;;;;2.78;1.90;;;36.20;44.60;;;;;;10515299;28;20500;-42
2023/06/15 19:31:34;;;;;;;3.60;1.75;;;36.10;44.40;;;;;;10523276;28;20059;-47
2023/06/15 19:36:36;;;;;;;3.10;1.67;;;36.00;44.30;;;;;;10522268;28;20463;-45
2023/06/15 19:41:39;;;;;;;4.40;1.70;;;35.90;44.30;;;;;;10507826;28;20483;-43
2023/06/15 19:46:41;;;;;;;3.10;1.60;;;35.80;44.00;;;;;;10516917;28;20085;-53
2023/06/15 19:51:43;;;;;;;3.55;1.83;;;35.70;44.10;;;;;;10513037;28;20071;-45
2023/06/15 19:56:46;;;;;;;5.00;1.80;;;35.60;44.10;;;;;;10511588;28;20404;-50
2023/06/15 20:01:48;;;;;;;3.97;2.10;;;35.50;43.80;;;;;;10519397;28;20484;-50
2023/06/15 20:06:50;;;;;;;4.07;1.58;;;35.40;44.50;;;;;;10519050;28;20055;-50
2023/06/15 20:11:53;;;;;;;3.28;1.80;;;35.30;43.80;;;;;;10516671;28;20040;-46
2023/06/15 20:16:56;;;;;;;2.65;1.40;;;35.20;43.70;;;;;;10523979;28;20144;-48
2023/06/15 20:21:58;;;;;;;3.13;1.92;;;35.10;43.80;;;;;;10520244;28;20380;-47
2023/06/15 20:27:01;;;;;;;3.42;1.38;;;35.10;43.80;;;;;;10531963;28;20043;-46
2023/06/15 20:32:03;;;;;;;4.20;2.28;;;35.00;44.00;;;;;;10526853;28;20616;-48
2023/06/15 20:37:05;;;;;;;4.65;2.10;;;34.90;44.10;;;;;;10523632;28;20055;-49
2023/06/15 20:42:09;;;;;;;2.42;1.70;;;34.80;44.00;;;;;;10526541;28;20046;-46
2023/06/15 20:47:11;;;;;;;2.28;1.40;;;34.70;44.20;;;;;;10524697;28;20493;-47
2023/06/15 20:52:13;;;;;;;6.20;1.83;;;34.70;44.10;;;;;;10518673;28;20075;-50
2023/06/15 20:57:16;;;;;;;6.22;1.98;;;34.60;43.90;;;;;;10520504;28;20144;-47
2023/06/15 21:02:18;;;;;;;3.25;1.48;;;34.50;44.20;;;;;;10539133;28;20044;-49
2023/06/15 21:07:20;;;;;;;4.13;1.90;;;34.40;44.30;;;;;;10522632;28;20072;-46
2023/06/15 21:12:23;;;;;;;4.32;1.90;;;34.30;44.20;;;;;;10526450;28;20157;-51
2023/06/15 21:17:25;;;;;;;3.30;2.25;;;34.20;44.30;;;;;;10522175;28;20075;-53
2023/06/15 21:22:27;;;;;;;6.20;2.63;;;34.20;44.30;;;;;;10528416;28;20158;-50
2023/06/15 21:27:30;;;;;;;3.40;2.38;;;34.10;44.20;;;;;;10524987;28;20058;-46
2023/06/15 21:32:32;;;;;;;3.75;2.38;;;34.00;44.40;;;;;;10511043;28;20044;-46
2023/06/15 21:37:34;;;;;;;2.38;2.00;;;33.90;44.40;;;;;;10517906;28;20041;-48
2023/06/15 21:42:38;;;;;;;4.82;2.10;;;33.90;44.40;;;;;;10525537;28;20127;-44
2023/06/15 21:47:39;;;;;;;7.28;2.58;;;33.80;44.70;;;;;;10512732;28;20429;-46
2023/06/15 21:52:46;;;;;;;3.30;2.08;;;33.70;44.70;;;;;;10515423;28;20110;-48
2023/06/15 21:57:49;;;;;;;5.15;2.17;;;33.70;44.90;;;;;;10520601;28;20055;-51
2023/06/15 22:02:51;;;;;;;3.70;1.88;;;33.60;44.80;;;;;;10522109;28;20048;-43
2023/06/15 22:07:53;;;;;;;2.58;1.80;;;33.50;44.90;;;;;;10515491;28;20090;-44
2023/06/15 22:12:56;;;;;;;4.25;1.80;;;33.50;45.00;;;;;;10518093;28;20133;-47
2023/06/15 22:18:00;;;;;;;3.08;2.10;;;33.40;45.10;;;;;;10527772;28;20056;-52
2023/06/15 22:23:02;;;;;;;4.28;2.05;;;33.30;45.10;;;;;;10526997;28;20074;-48
2023/06/15 22:28:05;;;;;;;3.08;1.75;;;33.30;45.20;;;;;;10525825;28;20074;-44
2023/06/15 22:33:07;;;;;;;5.35;1.95;;;33.20;45.20;;;;;;10523999;28;20497;-47
2023/06/15 22:38:09;;;;;;;3.05;1.77;;;33.10;45.20;;;;;;10515002;28;20056;-45
2023/06/15 22:43:12;;;;;;;3.15;1.73;;;33.10;45.40;;;;;;10508424;28;20113;-46
2023/06/15 22:48:20;;;;;;;2.30;1.65;;;33.00;45.40;;;;;;10525778;28;20102;-48
2023/06/15 22:53:22;;;;;;;2.30;1.73;;;33.00;45.50;;;;;;10531227;28;20094;-47
2023/06/15 22:58:26;;;;;;;2.40;1.75;;;32.90;45.50;;;;;;10528978;28;20152;-49
2023/06/15 23:03:27;;;;;;;5.03;1.70;;;32.90;45.60;;;;;;10529829;28;20134;-45
2023/06/15 23:08:30;;;;;;;2.97;1.88;;;32.80;45.60;;;;;;10526987;28;20882;-45
2023/06/15 23:13:36;;;;;;;2.10;1.50;;;32.70;45.70;;;;;;10515560;28;20051;-48
2023/06/15 23:18:38;;;;;;;2.78;1.70;;;32.60;45.70;;;;;;10522829;28;20044;-53
2023/06/15 23:23:40;;;;;;;2.60;1.52;;;32.60;45.80;;;;;;10521630;28;20634;-50
2023/06/15 23:28:44;;;;;;;2.20;1.50;;;32.50;46.40;;;;;;10534356;28;20076;-49
2023/06/15 23:33:47;;;;;;;2.55;1.58;;;32.50;45.90;;;;;;10534863;28;20486;-48
2023/06/15 23:38:49;;;;;;;6.13;1.70;;;32.50;46.00;;;;;;10534063;28;20052;-47
2023/06/15 23:43:53;;;;;;;3.72;1.73;;;32.40;46.00;;;;;;10516299;28;20528;-50
2023/06/15 23:48:55;;;;;;;2.95;1.77;;;32.30;46.00;;;;;;10532692;28;20068;-49
2023/06/15 23:53:56;;;;;;;2.78;1.70;;;32.30;46.20;;;;;;10529207;28;20051;-44
2023/06/15 23:59:00;;;;;;;3.35;1.95;;;32.20;46.10;;;;;;10531058;28;20124;-47
